sensor_id;sensor_type;location;lat;lon;timestamp;noise_LAeq;noise_LA_min;noise_LA_max;noise_LA01;noise_LA95
66888;Laerm;67239;51.680;5.976;2023-05-02T00:02:05;35.96;32.76;40.03;;
66888;Laerm;67239;51.680;5.976;2023-05-02T00:04:33;54.44;32.59;72.52;;
66888;Laerm;67239;51.680;5.976;2023-05-02T00:07:00;35.80;32.48;39.53;;
66888;Laerm;67239;51.680;5.976;2023-05-02T00:09:28;35.87;31.57;44.40;;
66888;Laerm;67239;51.680;5.976;2023-05-02T00:11:55;36.29;33.01;40.89;;
66888;Laerm;67239;51.680;5.976;2023-05-02T00:14:24;35.60;32.88;38.69;;
66888;Laerm;67239;51.680;5.976;2023-05-02T00:16:51;36.29;32.74;40.16;;
66888;Laerm;67239;51.680;5.976;2023-05-02T00:19:18;36.38;33.17;45.26;;
66888;Laerm;67239;51.680;5.976;2023-05-02T00:21:48;37.41;33.20;46.63;;
66888;Laerm;67239;51.680;5.976;2023-05-02T00:24:17;55.14;33.62;77.65;;
66888;Laerm;67239;51.680;5.976;2023-05-02T00:26:44;36.49;32.48;43.32;;
66888;Laerm;67239;51.680;5.976;2023-05-02T00:29:11;35.94;32.48;42.10;;
66888;Laerm;67239;51.680;5.976;2023-05-02T00:31:40;36.02;32.40;42.12;;
66888;Laerm;67239;51.680;5.976;2023-05-02T00:34:07;36.24;32.73;41.26;;
66888;Laerm;67239;51.680;5.976;2023-05-02T00:36:34;37.36;32.23;46.61;;
66888;Laerm;67239;51.680;5.976;2023-05-02T00:39:01;35.85;32.22;50.38;;
66888;Laerm;67239;51.680;5.976;2023-05-02T00:41:28;38.01;33.55;48.81;;
66888;Laerm;67239;51.680;5.976;2023-05-02T00:43:57;37.59;34.08;42.19;;
66888;Laerm;67239;51.680;5.976;2023-05-02T00:46:24;36.14;32.70;41.55;;
66888;Laerm;67239;51.680;5.976;2023-05-02T00:48:51;36.61;32.84;40.15;;
66888;Laerm;67239;51.680;5.976;2023-05-02T00:51:18;35.33;32.64;39.21;;
66888;Laerm;67239;51.680;5.976;2023-05-02T00:53:46;35.85;32.14;43.69;;
66888;Laerm;67239;51.680;5.976;2023-05-02T00:56:13;35.79;32.06;41.01;;
66888;Laerm;67239;51.680;5.976;2023-05-02T00:58:41;35.40;32.03;40.36;;
66888;Laerm;67239;51.680;5.976;2023-05-02T01:01:35;36.94;32.62;45.07;;
66888;Laerm;67239;51.680;5.976;2023-05-02T01:04:38;38.75;33.46;45.31;;
66888;Laerm;67239;51.680;5.976;2023-05-02T01:08:19;39.84;34.92;47.86;;
66888;Laerm;67239;51.680;5.976;2023-05-02T01:11:14;54.54;34.32;73.53;;
66888;Laerm;67239;51.680;5.976;2023-05-02T01:13:45;39.67;34.19;50.63;;
66888;Laerm;67239;51.680;5.976;2023-05-02T01:16:15;40.81;34.74;51.27;;
66888;Laerm;67239;51.680;5.976;2023-05-02T01:18:47;39.12;34.27;47.40;;
66888;Laerm;67239;51.680;5.976;2023-05-02T01:21:16;37.98;33.83;47.03;;
66888;Laerm;67239;51.680;5.976;2023-05-02T01:24:11;40.36;33.91;52.25;;
66888;Laerm;67239;51.680;5.976;2023-05-02T01:27:09;38.70;34.08;49.25;;
66888;Laerm;67239;51.680;5.976;2023-05-02T01:29:39;35.69;32.39;49.96;;
66888;Laerm;67239;51.680;5.976;2023-05-02T01:32:08;36.26;32.91;43.53;;
66888;Laerm;67239;51.680;5.976;2023-05-02T01:34:42;37.69;33.46;52.55;;
66888;Laerm;67239;51.680;5.976;2023-05-02T01:37:12;36.57;32.60;43.44;;
66888;Laerm;67239;51.680;5.976;2023-05-02T01:39:43;35.81;32.28;42.68;;
66888;Laerm;67239;51.680;5.976;2023-05-02T01:42:11;35.75;31.91;41.27;;
66888;Laerm;67239;51.680;5.976;2023-05-02T01:44:41;35.14;31.57;40.81;;
66888;Laerm;67239;51.680;5.976;2023-05-02T01:47:09;34.87;31.57;39.33;;
66888;Laerm;67239;51.680;5.976;2023-05-02T01:49:37;36.40;31.99;45.10;;
66888;Laerm;67239;51.680;5.976;2023-05-02T01:52:10;37.61;33.25;47.56;;
66888;Laerm;67239;51.680;5.976;2023-05-02T01:54:41;36.30;32.64;46.16;;
66888;Laerm;67239;51.680;5.976;2023-05-02T01:57:11;37.47;32.87;48.90;;
66888;Laerm;67239;51.680;5.976;2023-05-02T01:59:39;56.37;32.07;76.46;;
66888;Laerm;67239;51.680;5.976;2023-05-02T02:02:11;57.24;32.74;76.98;;
66888;Laerm;67239;51.680;5.976;2023-05-02T02:04:39;56.89;32.70;79.52;;
66888;Laerm;67239;51.680;5.976;2023-05-02T02:07:12;55.98;32.39;79.66;;
66888;Laerm;67239;51.680;5.976;2023-05-02T02:09:40;55.34;34.00;73.59;;
66888;Laerm;67239;51.680;5.976;2023-05-02T02:12:15;37.45;32.12;46.62;;
66888;Laerm;67239;51.680;5.976;2023-05-02T02:14:49;57.36;32.46;79.28;;
66888;Laerm;67239;51.680;5.976;2023-05-02T02:17:29;38.95;33.38;58.65;;
66888;Laerm;67239;51.680;5.976;2023-05-02T02:20:02;54.33;33.14;72.67;;
66888;Laerm;67239;51.680;5.976;2023-05-02T02:22:36;61.78;33.90;79.98;;
66888;Laerm;67239;51.680;5.976;2023-05-02T02:25:09;48.18;32.17;68.28;;
66888;Laerm;67239;51.680;5.976;2023-05-02T02:27:39;47.05;33.42;65.02;;
66888;Laerm;67239;51.680;5.976;2023-05-02T02:30:08;59.98;32.62;78.21;;
66888;Laerm;67239;51.680;5.976;2023-05-02T02:32:37;54.06;33.30;69.42;;
66888;Laerm;67239;51.680;5.976;2023-05-02T02:35:05;55.93;33.72;74.94;;
66888;Laerm;67239;51.680;5.976;2023-05-02T02:38:10;61.18;33.21;78.98;;
66888;Laerm;67239;51.680;5.976;2023-05-02T02:41:26;45.41;33.01;65.21;;
66888;Laerm;67239;51.680;5.976;2023-05-02T02:44:12;58.88;34.95;77.80;;
66888;Laerm;67239;51.680;5.976;2023-05-02T02:47:05;59.88;34.04;79.53;;
66888;Laerm;67239;51.680;5.976;2023-05-02T02:50:05;59.22;33.86;77.77;;
66888;Laerm;67239;51.680;5.976;2023-05-02T02:53:10;55.42;33.69;71.49;;
66888;Laerm;67239;51.680;5.976;2023-05-02T02:55:58;57.00;33.47;73.62;;
66888;Laerm;67239;51.680;5.976;2023-05-02T03:01:21;61.13;35.89;83.10;;
66888;Laerm;67239;51.680;5.976;2023-05-02T03:03:52;43.87;36.33;59.03;;
66888;Laerm;67239;51.680;5.976;2023-05-02T03:06:20;56.51;36.47;73.29;;
66888;Laerm;67239;51.680;5.976;2023-05-02T03:08:48;55.05;35.14;71.76;;
66888;Laerm;67239;51.680;5.976;2023-05-02T03:11:19;41.53;35.73;53.97;;
66888;Laerm;67239;51.680;5.976;2023-05-02T03:13:46;55.54;37.47;75.45;;
66888;Laerm;67239;51.680;5.976;2023-05-02T03:16:39;59.96;35.05;77.68;;
66888;Laerm;67239;51.680;5.976;2023-05-02T03:19:11;59.84;34.87;75.86;;
66888;Laerm;67239;51.680;5.976;2023-05-02T03:21:38;55.90;35.84;73.52;;
66888;Laerm;67239;51.680;5.976;2023-05-02T03:24:11;65.31;37.17;80.52;;
66888;Laerm;67239;51.680;5.976;2023-05-02T03:26:39;61.58;38.52;78.69;;
66888;Laerm;67239;51.680;5.976;2023-05-02T03:29:08;56.99;38.53;74.29;;
66888;Laerm;67239;51.680;5.976;2023-05-02T03:31:39;62.51;38.97;75.99;;
66888;Laerm;67239;51.680;5.976;2023-05-02T03:34:06;63.45;42.16;81.05;;
66888;Laerm;67239;51.680;5.976;2023-05-02T03:36:35;64.60;40.83;83.15;;
66888;Laerm;67239;51.680;5.976;2023-05-02T03:39:02;63.69;43.24;76.23;;
66888;Laerm;67239;51.680;5.976;2023-05-02T03:41:29;60.82;43.87;75.77;;
66888;Laerm;67239;51.680;5.976;2023-05-02T03:44:03;57.47;41.50;70.74;;
66888;Laerm;67239;51.680;5.976;2023-05-02T03:46:30;63.07;39.68;78.10;;
66888;Laerm;67239;51.680;5.976;2023-05-02T03:48:57;65.53;40.70;80.89;;
66888;Laerm;67239;51.680;5.976;2023-05-02T03:51:25;62.88;39.46;79.48;;
66888;Laerm;67239;51.680;5.976;2023-05-02T03:53:55;62.43;39.11;76.63;;
66888;Laerm;67239;51.680;5.976;2023-05-02T03:56:22;64.88;39.55;78.93;;
66888;Laerm;67239;51.680;5.976;2023-05-02T03:59:00;66.16;38.26;80.80;;
66888;Laerm;67239;51.680;5.976;2023-05-02T04:01:27;61.15;39.58;77.80;;
66888;Laerm;67239;51.680;5.976;2023-05-02T04:03:56;69.15;40.30;84.14;;
66888;Laerm;67239;51.680;5.976;2023-05-02T04:06:26;64.74;42.95;78.84;;
66888;Laerm;67239;51.680;5.976;2023-05-02T04:08:57;66.93;41.91;80.46;;
66888;Laerm;67239;51.680;5.976;2023-05-02T04:11:32;62.34;42.07;79.10;;
66888;Laerm;67239;51.680;5.976;2023-05-02T04:14:01;67.10;43.72;82.88;;
66888;Laerm;67239;51.680;5.976;2023-05-02T04:16:30;68.27;44.39;80.74;;
66888;Laerm;67239;51.680;5.976;2023-05-02T04:18:58;64.82;41.99;80.70;;
66888;Laerm;67239;51.680;5.976;2023-05-02T04:21:25;68.20;44.10;82.02;;
66888;Laerm;67239;51.680;5.976;2023-05-02T04:23:53;63.99;42.71;77.41;;
66888;Laerm;67239;51.680;5.976;2023-05-02T04:26:21;64.05;41.72;80.17;;
66888;Laerm;67239;51.680;5.976;2023-05-02T04:28:55;65.80;42.11;79.49;;
66888;Laerm;67239;51.680;5.976;2023-05-02T04:31:22;64.25;39.81;79.91;;
66888;Laerm;67239;51.680;5.976;2023-05-02T04:33:50;67.90;42.22;83.10;;
66888;Laerm;67239;51.680;5.976;2023-05-02T04:36:23;59.80;43.32;74.20;;
66888;Laerm;67239;51.680;5.976;2023-05-02T04:38:51;65.86;42.28;79.86;;
66888;Laerm;67239;51.680;5.976;2023-05-02T04:41:18;66.71;44.05;79.73;;
66888;Laerm;67239;51.680;5.976;2023-05-02T04:43:51;67.96;45.12;85.72;;
66888;Laerm;67239;51.680;5.976;2023-05-02T04:46:18;69.30;49.05;81.77;;
66888;Laerm;67239;51.680;5.976;2023-05-02T04:48:45;67.20;44.02;80.91;;
66888;Laerm;67239;51.680;5.976;2023-05-02T04:51:12;69.59;44.58;84.93;;
66888;Laerm;67239;51.680;5.976;2023-05-02T04:53:44;67.26;43.07;83.32;;
66888;Laerm;67239;51.680;5.976;2023-05-02T04:56:11;65.97;43.57;78.91;;
66888;Laerm;67239;51.680;5.976;2023-05-02T04:58:38;70.25;49.87;81.34;;
66888;Laerm;67239;51.680;5.976;2023-05-02T05:01:08;68.38;44.27;84.16;;
66888;Laerm;67239;51.680;5.976;2023-05-02T05:03:35;66.61;44.22;83.79;;
66888;Laerm;67239;51.680;5.976;2023-05-02T05:06:04;66.95;47.16;77.47;;
66888;Laerm;67239;51.680;5.976;2023-05-02T05:08:31;68.64;46.66;84.49;;
66888;Laerm;67239;51.680;5.976;2023-05-02T05:10:59;70.81;47.74;85.05;;
66888;Laerm;67239;51.680;5.976;2023-05-02T05:13:27;67.87;45.72;81.64;;
66888;Laerm;67239;51.680;5.976;2023-05-02T05:15:54;70.55;43.97;84.11;;
66888;Laerm;67239;51.680;5.976;2023-05-02T05:18:26;69.21;45.77;86.54;;
66888;Laerm;67239;51.680;5.976;2023-05-02T05:20:53;69.25;46.43;82.29;;
66888;Laerm;67239;51.680;5.976;2023-05-02T05:23:20;67.74;44.82;81.54;;
66888;Laerm;67239;51.680;5.976;2023-05-02T05:25:47;69.93;44.87;84.14;;
66888;Laerm;67239;51.680;5.976;2023-05-02T05:28:16;69.53;45.77;84.72;;
66888;Laerm;67239;51.680;5.976;2023-05-02T05:30:44;67.65;47.92;81.13;;
66888;Laerm;67239;51.680;5.976;2023-05-02T05:33:16;69.59;46.21;83.04;;
66888;Laerm;67239;51.680;5.976;2023-05-02T05:35:43;68.81;48.61;81.78;;
66888;Laerm;67239;51.680;5.976;2023-05-02T05:38:11;70.38;50.57;83.74;;
66888;Laerm;67239;51.680;5.976;2023-05-02T05:40:41;62.10;46.78;75.51;;
66888;Laerm;67239;51.680;5.976;2023-05-02T05:43:09;68.29;48.29;82.53;;
66888;Laerm;67239;51.680;5.976;2023-05-02T05:45:37;70.01;48.16;82.76;;
66888;Laerm;67239;51.680;5.976;2023-05-02T05:48:05;69.24;48.82;84.04;;
66888;Laerm;67239;51.680;5.976;2023-05-02T05:50:38;68.93;47.43;84.89;;
66888;Laerm;67239;51.680;5.976;2023-05-02T05:53:05;67.63;51.15;79.95;;
66888;Laerm;67239;51.680;5.976;2023-05-02T05:55:33;69.26;49.99;80.66;;
66888;Laerm;67239;51.680;5.976;2023-05-02T05:58:04;67.66;49.01;79.27;;
66888;Laerm;67239;51.680;5.976;2023-05-02T06:00:34;70.22;54.03;83.54;;
66888;Laerm;67239;51.680;5.976;2023-05-02T06:03:02;71.42;51.92;86.80;;
66888;Laerm;67239;51.680;5.976;2023-05-02T06:05:32;67.55;47.33;80.07;;
66888;Laerm;67239;51.680;5.976;2023-05-02T06:07:59;70.02;51.90;81.88;;
66888;Laerm;67239;51.680;5.976;2023-05-02T06:10:26;68.85;49.20;82.26;;
66888;Laerm;67239;51.680;5.976;2023-05-02T06:12:54;67.39;47.33;83.18;;
66888;Laerm;67239;51.680;5.976;2023-05-02T06:15:25;70.39;54.33;80.99;;
66888;Laerm;67239;51.680;5.976;2023-05-02T06:17:52;70.68;49.27;84.63;;
66888;Laerm;67239;51.680;5.976;2023-05-02T06:20:19;69.52;48.29;84.88;;
66888;Laerm;67239;51.680;5.976;2023-05-02T06:22:47;67.01;47.31;80.39;;
66888;Laerm;67239;51.680;5.976;2023-05-02T06:25:14;69.12;48.47;81.28;;
66888;Laerm;67239;51.680;5.976;2023-05-02T06:27:41;68.68;47.90;85.84;;
66888;Laerm;67239;51.680;5.976;2023-05-02T06:30:08;70.30;50.73;81.55;;
66888;Laerm;67239;51.680;5.976;2023-05-02T06:32:35;69.58;48.21;83.30;;
66888;Laerm;67239;51.680;5.976;2023-05-02T06:35:03;67.94;46.89;83.74;;
66888;Laerm;67239;51.680;5.976;2023-05-02T06:37:34;69.23;45.82;80.79;;
66888;Laerm;67239;51.680;5.976;2023-05-02T06:40:02;69.40;47.92;81.30;;
66888;Laerm;67239;51.680;5.976;2023-05-02T06:42:30;66.76;45.41;79.84;;
66888;Laerm;67239;51.680;5.976;2023-05-02T06:44:57;72.42;50.21;85.79;;
66888;Laerm;67239;51.680;5.976;2023-05-02T06:47:24;69.30;45.34;82.84;;
66888;Laerm;67239;51.680;5.976;2023-05-02T06:49:51;68.23;45.78;80.25;;
66888;Laerm;67239;51.680;5.976;2023-05-02T06:52:19;67.50;46.66;84.76;;
66888;Laerm;67239;51.680;5.976;2023-05-02T06:54:46;69.01;44.23;81.34;;
66888;Laerm;67239;51.680;5.976;2023-05-02T06:57:13;64.56;46.67;77.59;;
66888;Laerm;67239;51.680;5.976;2023-05-02T06:59:41;71.64;53.12;85.64;;
66888;Laerm;67239;51.680;5.976;2023-05-02T07:02:08;66.70;49.35;78.53;;
66888;Laerm;67239;51.680;5.976;2023-05-02T07:04:36;66.01;43.46;79.24;;
66888;Laerm;67239;51.680;5.976;2023-05-02T07:07:03;71.25;46.88;86.36;;
66888;Laerm;67239;51.680;5.976;2023-05-02T07:09:30;65.36;43.14;78.14;;
66888;Laerm;67239;51.680;5.976;2023-05-02T07:11:57;66.47;46.44;78.70;;
66888;Laerm;67239;51.680;5.976;2023-05-02T07:14:24;69.04;49.15;83.02;;
66888;Laerm;67239;51.680;5.976;2023-05-02T07:16:52;69.23;46.55;85.36;;
66888;Laerm;67239;51.680;5.976;2023-05-02T07:19:19;70.03;49.56;83.85;;
66888;Laerm;67239;51.680;5.976;2023-05-02T07:21:46;68.17;45.40;84.01;;
66888;Laerm;67239;51.680;5.976;2023-05-02T07:24:14;66.30;46.78;79.02;;
66888;Laerm;67239;51.680;5.976;2023-05-02T07:26:41;69.42;51.76;81.21;;
66888;Laerm;67239;51.680;5.976;2023-05-02T07:29:08;70.24;49.07;83.63;;
66888;Laerm;67239;51.680;5.976;2023-05-02T07:31:35;70.26;51.51;82.86;;
66888;Laerm;67239;51.680;5.976;2023-05-02T07:34:02;69.64;49.53;81.64;;
66888;Laerm;67239;51.680;5.976;2023-05-02T07:36:29;65.21;48.28;79.24;;
66888;Laerm;67239;51.680;5.976;2023-05-02T07:38:57;65.14;42.49;78.24;;
66888;Laerm;67239;51.680;5.976;2023-05-02T07:41:24;69.52;44.19;84.39;;
66888;Laerm;67239;51.680;5.976;2023-05-02T07:43:51;66.99;44.20;80.39;;
66888;Laerm;67239;51.680;5.976;2023-05-02T07:46:18;66.71;44.82;78.88;;
66888;Laerm;67239;51.680;5.976;2023-05-02T07:48:45;70.47;44.92;83.74;;
66888;Laerm;67239;51.680;5.976;2023-05-02T07:51:12;67.47;43.73;80.69;;
66888;Laerm;67239;51.680;5.976;2023-05-02T07:53:39;65.98;44.50;78.37;;
66888;Laerm;67239;51.680;5.976;2023-05-02T07:56:07;67.84;45.71;83.97;;
66888;Laerm;67239;51.680;5.976;2023-05-02T07:58:35;69.45;43.36;85.38;;
66888;Laerm;67239;51.680;5.976;2023-05-02T08:01:04;71.20;51.04;86.06;;
66888;Laerm;67239;51.680;5.976;2023-05-02T08:03:31;67.10;48.16;79.83;;
66888;Laerm;67239;51.680;5.976;2023-05-02T08:05:59;67.34;40.15;83.61;;
66888;Laerm;67239;51.680;5.976;2023-05-02T08:08:28;69.83;46.94;85.08;;
66888;Laerm;67239;51.680;5.976;2023-05-02T08:10:55;66.84;43.24;80.22;;
66888;Laerm;67239;51.680;5.976;2023-05-02T08:13:22;68.00;50.15;79.87;;
66888;Laerm;67239;51.680;5.976;2023-05-02T08:15:49;67.51;43.55;82.64;;
66888;Laerm;67239;51.680;5.976;2023-05-02T08:18:16;71.91;50.05;86.00;;
66888;Laerm;67239;51.680;5.976;2023-05-02T08:20:43;70.32;43.99;83.66;;
66888;Laerm;67239;51.680;5.976;2023-05-02T08:23:10;68.89;45.73;80.23;;
66888;Laerm;67239;51.680;5.976;2023-05-02T08:25:36;70.66;48.16;81.04;;
66888;Laerm;67239;51.680;5.976;2023-05-02T08:28:03;71.78;46.85;84.65;;
66888;Laerm;67239;51.680;5.976;2023-05-02T08:30:31;68.60;44.75;80.31;;
66888;Laerm;67239;51.680;5.976;2023-05-02T08:32:57;67.62;42.89;82.63;;
66888;Laerm;67239;51.680;5.976;2023-05-02T08:35:25;70.24;45.49;84.33;;
66888;Laerm;67239;51.680;5.976;2023-05-02T08:37:52;69.78;45.75;81.69;;
66888;Laerm;67239;51.680;5.976;2023-05-02T08:40:21;64.88;45.44;80.85;;
66888;Laerm;67239;51.680;5.976;2023-05-02T08:43:07;67.90;47.75;82.85;;
66888;Laerm;67239;51.680;5.976;2023-05-02T08:45:39;68.90;48.81;78.81;;
66888;Laerm;67239;51.680;5.976;2023-05-02T08:48:09;70.91;48.27;83.77;;
66888;Laerm;67239;51.680;5.976;2023-05-02T08:50:42;62.08;42.42;76.84;;
66888;Laerm;67239;51.680;5.976;2023-05-02T08:53:12;67.77;44.79;84.37;;
66888;Laerm;67239;51.680;5.976;2023-05-02T08:55:41;70.76;43.91;84.56;;
66888;Laerm;67239;51.680;5.976;2023-05-02T08:58:08;66.54;43.38;79.55;;
66888;Laerm;67239;51.680;5.976;2023-05-02T09:00:41;68.29;42.27;82.63;;
66888;Laerm;67239;51.680;5.976;2023-05-02T09:03:22;68.87;44.43;82.99;;
66888;Laerm;67239;51.680;5.976;2023-05-02T09:06:10;69.38;46.43;85.14;;
66888;Laerm;67239;51.680;5.976;2023-05-02T09:08:44;69.30;46.48;82.11;;
66888;Laerm;67239;51.680;5.976;2023-05-02T09:11:14;69.88;45.29;86.04;;
66888;Laerm;67239;51.680;5.976;2023-05-02T09:13:48;64.61;45.93;77.24;;
66888;Laerm;67239;51.680;5.976;2023-05-02T09:16:18;71.44;49.99;83.08;;
66888;Laerm;67239;51.680;5.976;2023-05-02T09:18:53;70.40;47.82;83.44;;
66888;Laerm;67239;51.680;5.976;2023-05-02T09:21:35;68.87;46.41;82.12;;
66888;Laerm;67239;51.680;5.976;2023-05-02T09:24:21;68.79;52.90;80.99;;
66888;Laerm;67239;51.680;5.976;2023-05-02T09:27:04;66.51;52.30;77.68;;
66888;Laerm;67239;51.680;5.976;2023-05-02T09:29:32;69.73;52.05;83.52;;
66888;Laerm;67239;51.680;5.976;2023-05-02T09:32:05;69.77;52.47;84.37;;
66888;Laerm;67239;51.680;5.976;2023-05-02T09:34:33;69.42;49.68;83.47;;
66888;Laerm;67239;51.680;5.976;2023-05-02T09:37:00;69.53;49.22;83.18;;
66888;Laerm;67239;51.680;5.976;2023-05-02T09:39:29;68.60;46.31;82.58;;
66888;Laerm;67239;51.680;5.976;2023-05-02T09:41:58;70.49;49.61;85.85;;
66888;Laerm;67239;51.680;5.976;2023-05-02T09:44:36;65.10;43.80;78.45;;
66888;Laerm;67239;51.680;5.976;2023-05-02T09:47:03;65.26;45.55;79.14;;
66888;Laerm;67239;51.680;5.976;2023-05-02T09:49:43;71.26;48.35;82.61;;
66888;Laerm;67239;51.680;5.976;2023-05-02T09:52:14;69.85;42.35;84.76;;
66888;Laerm;67239;51.680;5.976;2023-05-02T09:54:42;69.77;48.09;85.86;;
66888;Laerm;67239;51.680;5.976;2023-05-02T09:57:10;68.34;49.84;80.47;;
66888;Laerm;67239;51.680;5.976;2023-05-02T09:59:51;69.74;51.46;81.77;;
66888;Laerm;67239;51.680;5.976;2023-05-02T10:02:20;72.07;52.65;85.43;;
66888;Laerm;67239;51.680;5.976;2023-05-02T10:04:48;68.68;53.41;82.80;;
66888;Laerm;67239;51.680;5.976;2023-05-02T10:07:16;70.12;54.29;84.30;;
66888;Laerm;67239;51.680;5.976;2023-05-02T10:09:45;69.86;52.45;83.34;;
66888;Laerm;67239;51.680;5.976;2023-05-02T10:12:18;68.85;50.28;81.81;;
66888;Laerm;67239;51.680;5.976;2023-05-02T10:14:54;69.67;49.66;82.46;;
66888;Laerm;67239;51.680;5.976;2023-05-02T10:17:30;69.33;50.79;83.70;;
66888;Laerm;67239;51.680;5.976;2023-05-02T10:20:04;68.06;51.06;81.48;;
66888;Laerm;67239;51.680;5.976;2023-05-02T10:22:33;69.78;51.61;81.93;;
66888;Laerm;67239;51.680;5.976;2023-05-02T10:25:02;69.73;51.22;85.07;;
66888;Laerm;67239;51.680;5.976;2023-05-02T10:27:31;69.12;52.10;81.10;;
66888;Laerm;67239;51.680;5.976;2023-05-02T10:29:59;68.64;46.72;83.00;;
66888;Laerm;67239;51.680;5.976;2023-05-02T10:32:28;66.94;46.56;79.35;;
66888;Laerm;67239;51.680;5.976;2023-05-02T10:34:56;71.10;50.53;83.38;;
66888;Laerm;67239;51.680;5.976;2023-05-02T10:37:28;69.17;49.75;83.25;;
66888;Laerm;67239;51.680;5.976;2023-05-02T10:39:57;69.10;48.99;80.99;;
66888;Laerm;67239;51.680;5.976;2023-05-02T10:42:26;67.88;48.23;78.82;;
66888;Laerm;67239;51.680;5.976;2023-05-02T10:44:53;67.68;43.40;80.47;;
66888;Laerm;67239;51.680;5.976;2023-05-02T10:47:23;67.38;41.60;83.28;;
66888;Laerm;67239;51.680;5.976;2023-05-02T10:50:00;70.70;48.51;81.76;;
66888;Laerm;67239;51.680;5.976;2023-05-02T10:52:36;70.67;47.05;81.53;;
66888;Laerm;67239;51.680;5.976;2023-05-02T10:55:22;68.82;42.79;84.84;;
66888;Laerm;67239;51.680;5.976;2023-05-02T11:02:53;70.02;45.92;85.54;;
66888;Laerm;67239;51.680;5.976;2023-05-02T11:05:22;69.11;45.54;83.95;;
66888;Laerm;67239;51.680;5.976;2023-05-02T11:10:46;69.71;42.32;81.10;;
66888;Laerm;67239;51.680;5.976;2023-05-02T11:13:13;68.16;42.45;82.04;;
66888;Laerm;67239;51.680;5.976;2023-05-02T11:18:11;68.44;43.21;81.55;;
66888;Laerm;67239;51.680;5.976;2023-05-02T11:20:42;68.58;42.58;83.68;;
66888;Laerm;67239;51.680;5.976;2023-05-02T11:25:45;67.36;40.63;81.98;;
66888;Laerm;67239;51.680;5.976;2023-05-02T11:28:39;68.54;44.83;80.14;;
66888;Laerm;67239;51.680;5.976;2023-05-02T11:34:02;67.77;41.99;83.39;;
66888;Laerm;67239;51.680;5.976;2023-05-02T11:36:32;65.71;43.96;77.84;;
66888;Laerm;67239;51.680;5.976;2023-05-02T11:39:01;70.19;45.81;83.62;;
66888;Laerm;67239;51.680;5.976;2023-05-02T11:41:42;70.38;44.17;82.59;;
66888;Laerm;67239;51.680;5.976;2023-05-02T11:44:09;72.30;45.76;88.14;;
66888;Laerm;67239;51.680;5.976;2023-05-02T11:46:38;65.52;42.07;78.48;;
66888;Laerm;67239;51.680;5.976;2023-05-02T11:49:06;70.99;50.58;85.56;;
66888;Laerm;67239;51.680;5.976;2023-05-02T11:51:36;71.02;47.88;85.68;;
66888;Laerm;67239;51.680;5.976;2023-05-02T11:54:06;69.54;45.97;82.17;;
66888;Laerm;67239;51.680;5.976;2023-05-02T11:56:34;71.23;46.27;84.72;;
66888;Laerm;67239;51.680;5.976;2023-05-02T11:59:02;70.40;45.69;84.92;;
66888;Laerm;67239;51.680;5.976;2023-05-02T12:01:30;67.24;44.21;78.40;;
66888;Laerm;67239;51.680;5.976;2023-05-02T12:04:05;69.72;43.84;83.48;;
66888;Laerm;67239;51.680;5.976;2023-05-02T12:06:36;69.28;43.69;81.76;;
66888;Laerm;67239;51.680;5.976;2023-05-02T12:09:13;69.31;46.16;80.96;;
66888;Laerm;67239;51.680;5.976;2023-05-02T12:11:43;71.45;49.68;84.10;;
66888;Laerm;67239;51.680;5.976;2023-05-02T12:14:10;69.88;44.78;83.08;;
66888;Laerm;67239;51.680;5.976;2023-05-02T12:16:38;69.86;43.26;81.75;;
66888;Laerm;67239;51.680;5.976;2023-05-02T12:19:05;70.07;48.13;85.15;;
66888;Laerm;67239;51.680;5.976;2023-05-02T12:21:33;67.84;44.87;81.94;;
66888;Laerm;67239;51.680;5.976;2023-05-02T12:24:00;67.61;46.30;80.54;;
66888;Laerm;67239;51.680;5.976;2023-05-02T12:26:28;65.67;44.91;77.42;;
66888;Laerm;67239;51.680;5.976;2023-05-02T12:28:56;70.43;45.23;82.72;;
66888;Laerm;67239;51.680;5.976;2023-05-02T12:31:25;63.70;43.05;78.89;;
66888;Laerm;67239;51.680;5.976;2023-05-02T12:33:57;70.31;47.40;82.72;;
66888;Laerm;67239;51.680;5.976;2023-05-02T12:36:27;70.67;46.90;84.29;;
66888;Laerm;67239;51.680;5.976;2023-05-02T12:38:57;69.61;50.28;84.03;;
66888;Laerm;67239;51.680;5.976;2023-05-02T12:41:33;67.89;45.75;78.51;;
66888;Laerm;67239;51.680;5.976;2023-05-02T12:44:02;69.19;46.65;84.07;;
66888;Laerm;67239;51.680;5.976;2023-05-02T12:46:30;68.44;46.51;80.96;;
66888;Laerm;67239;51.680;5.976;2023-05-02T12:49:03;68.06;43.71;80.65;;
66888;Laerm;67239;51.680;5.976;2023-05-02T12:51:31;68.99;41.55;82.83;;
66888;Laerm;67239;51.680;5.976;2023-05-02T12:54:00;71.02;49.31;86.27;;
66888;Laerm;67239;51.680;5.976;2023-05-02T12:56:27;69.73;46.88;79.63;;
66888;Laerm;67239;51.680;5.976;2023-05-02T12:58:58;66.47;46.66;81.73;;
66888;Laerm;67239;51.680;5.976;2023-05-02T13:01:27;67.69;47.43;80.77;;
66888;Laerm;67239;51.680;5.976;2023-05-02T13:03:54;70.07;50.59;83.75;;
66888;Laerm;67239;51.680;5.976;2023-05-02T13:06:21;65.93;42.11;78.64;;
66888;Laerm;67239;51.680;5.976;2023-05-02T13:08:48;70.19;46.47;83.29;;
66888;Laerm;67239;51.680;5.976;2023-05-02T13:11:15;68.40;46.35;84.00;;
66888;Laerm;67239;51.680;5.976;2023-05-02T13:13:43;69.73;45.74;85.44;;
66888;Laerm;67239;51.680;5.976;2023-05-02T13:16:10;67.00;45.82;80.50;;
66888;Laerm;67239;51.680;5.976;2023-05-02T13:18:37;69.94;47.81;82.08;;
66888;Laerm;67239;51.680;5.976;2023-05-02T13:21:05;69.63;45.08;84.53;;
66888;Laerm;67239;51.680;5.976;2023-05-02T13:23:32;69.12;44.88;81.45;;
66888;Laerm;67239;51.680;5.976;2023-05-02T13:25:59;70.11;47.26;82.10;;
66888;Laerm;67239;51.680;5.976;2023-05-02T13:28:26;71.48;48.23;85.24;;
66888;Laerm;67239;51.680;5.976;2023-05-02T13:30:54;67.18;43.22;79.61;;
66888;Laerm;67239;51.680;5.976;2023-05-02T13:33:21;69.86;47.11;81.87;;
66888;Laerm;67239;51.680;5.976;2023-05-02T13:35:48;69.21;50.03;81.60;;
66888;Laerm;67239;51.680;5.976;2023-05-02T13:38:15;67.22;45.28;82.19;;
66888;Laerm;67239;51.680;5.976;2023-05-02T13:40:42;70.09;46.00;84.03;;
66888;Laerm;67239;51.680;5.976;2023-05-02T13:43:09;67.68;46.15;79.13;;
66888;Laerm;67239;51.680;5.976;2023-05-02T13:45:36;69.26;46.14;83.46;;
66888;Laerm;67239;51.680;5.976;2023-05-02T13:48:04;68.63;48.81;82.38;;
66888;Laerm;67239;51.680;5.976;2023-05-02T13:50:31;69.82;47.22;85.61;;
66888;Laerm;67239;51.680;5.976;2023-05-02T13:53:02;71.19;52.82;84.72;;
66888;Laerm;67239;51.680;5.976;2023-05-02T13:55:29;68.36;44.07;82.12;;
66888;Laerm;67239;51.680;5.976;2023-05-02T13:57:56;68.36;49.15;81.84;;
66888;Laerm;67239;51.680;5.976;2023-05-02T14:00:24;69.99;47.15;84.21;;
66888;Laerm;67239;51.680;5.976;2023-05-02T14:02:51;70.16;46.31;83.12;;
66888;Laerm;67239;51.680;5.976;2023-05-02T14:05:19;72.70;49.01;85.79;;
66888;Laerm;67239;51.680;5.976;2023-05-02T14:07:46;69.23;46.84;79.84;;
66888;Laerm;67239;51.680;5.976;2023-05-02T14:10:13;69.32;47.48;80.27;;
66888;Laerm;67239;51.680;5.976;2023-05-02T14:12:40;70.18;48.47;82.99;;
66888;Laerm;67239;51.680;5.976;2023-05-02T14:15:07;69.81;42.90;81.71;;
66888;Laerm;67239;51.680;5.976;2023-05-02T14:17:34;69.37;45.16;82.77;;
66888;Laerm;67239;51.680;5.976;2023-05-02T14:20:02;68.42;45.87;81.08;;
66888;Laerm;67239;51.680;5.976;2023-05-02T14:22:29;66.82;45.70;78.36;;